This is the latest recevied weather packets stored in our database for station/object W8LMG. If no packets are shown the sender has not sent any weather packets the latest 1 day(s).
| Time | Temp. | Humidity | Pressure | Rain* | Wind** | Luminosity | Snow |
|---|---|---|---|---|---|---|---|
| 1778096990 | 20.56° C | 82% | 1010.1 hPa | 0 mm | - | 419 W/m² | - |
| 1778093959 | 18.89° C | 83% | 1010.1 hPa | 0 mm | - | 111 W/m² | - |
| 1778092140 | 18.89° C | 85% | 1010 hPa | 0 mm | - | 269 W/m² | - |
| 1778091837 | 18.33° C | 89% | 1010 hPa | 0 mm | - | 337 W/m² | - |
| 1778091534 | 18.33° C | 90% | 1010.2 hPa | 0 mm | - | 218 W/m² | - |
| 1778090625 | 17.22° C | 92% | 1010.6 hPa | 0 mm | - | 149 W/m² | - |
| 1778088201 | 16.11° C | 96% | 1010.7 hPa | 0 mm | - | 69 W/m² | - |
| 1778086688 | 15.56° C | 98% | 1011 hPa | 0 mm | - | 41 W/m² | - |
| 1778086385 | 15.56° C | 98% | 1011.5 hPa | 0 mm | - | 31 W/m² | - |
| 1778085170 | 15.56° C | 96% | 1011.4 hPa | 0 mm | - | 41 W/m² | - |
| 1778083656 | 15° C | 97% | 1011.8 hPa | 0 mm | - | 98 W/m² | - |
| 1778081306 | 14.44° C | 99% | 1011.2 hPa | 0 mm | - | 79 W/m² | - |
| 1778080702 | 13.89° C | 99% | 1011.6 hPa | 0 mm | - | 77 W/m² | - |
| 1778077673 | 13.33° C | 99% | 1011.6 hPa | 0 mm | - | 67 W/m² | - |
| 1778076464 | 13.33° C | 99% | 1011.5 hPa | 0 mm | - | 57 W/m² | - |
| 1778074947 | 12.78° C | 99% | 1011.5 hPa | 0 mm | - | 35 W/m² | - |
| 1778074341 | 12.78° C | 99% | 1011.7 hPa | 0 mm | - | 30 W/m² | - |
| 1778074038 | 12.78° C | 99% | 1011.8 hPa | 0 mm | - | 25 W/m² | - |
| 1778073735 | 12.78° C | 99% | 1011.8 hPa | 0 mm | - | 25 W/m² | - |
| 1778073433 | 12.78° C | 99% | 1011.6 hPa | 1.78 mm | - | 29 W/m² | - |
| 1778073129 | 12.78° C | 99% | 1011.6 hPa | 1.78 mm | - | 33 W/m² | - |
| 1778071616 | 12.22° C | 99% | 1011.7 hPa | 3.56 mm | - | 25 W/m² | - |
| 1778071011 | 12.22° C | 99% | 1011.5 hPa | 0 mm | - | 17 W/m² | - |
| 1778070406 | 12.22° C | 99% | 1011.3 hPa | 6.1 mm | - | 28 W/m² | - |
| 1778069196 | 12.22° C | 99% | 1011 hPa | 1.27 mm | - | 11 W/m² | - |
* Rain latest hour (hover to see other rain measurements)
** Current wind speed in m/s (hover to see current wind gust speed)